createdAt,value
2018-11-03T00:00:21.187Z,8.73
2018-11-03T00:02:50.674Z,9.57
2018-11-03T00:05:20.010Z,8.90
2018-11-03T00:07:49.514Z,9.87
2018-11-03T00:10:18.808Z,10.00
2018-11-03T00:12:48.318Z,10.33
2018-11-03T00:15:17.927Z,10.43
2018-11-03T00:17:47.327Z,9.57
2018-11-03T00:20:16.732Z,9.37
2018-11-03T00:22:47.156Z,9.37
2018-11-03T00:25:16.658Z,9.40
2018-11-03T00:27:46.062Z,10.63
2018-11-03T00:30:15.396Z,9.87
2018-11-03T00:32:44.833Z,11.50
2018-11-03T00:35:14.268Z,11.60
2018-11-03T00:37:43.607Z,11.30
2018-11-03T00:40:15.225Z,10.20
2018-11-03T00:42:45.053Z,11.60
2018-11-03T00:45:14.907Z,12.40
2018-11-03T00:47:45.069Z,11.53
2018-11-03T00:50:15.412Z,11.20
2018-11-03T00:52:45.205Z,11.83
2018-11-03T00:55:14.890Z,13.17
2018-11-03T00:57:44.586Z,11.67
2018-11-03T01:00:17.639Z,10.90
2018-11-03T01:02:48.158Z,11.53
2018-11-03T01:05:17.737Z,13.83
2018-11-03T01:07:48.470Z,14.00
2018-11-03T01:10:18.245Z,13.40
2018-11-03T01:12:47.686Z,13.67
2018-11-03T01:15:18.107Z,13.37
2018-11-03T01:17:47.576Z,13.20
2018-11-03T01:20:17.938Z,12.93
2018-11-03T01:22:47.397Z,10.93
2018-11-03T01:25:16.944Z,11.60
2018-11-03T01:27:46.551Z,11.70
2018-11-03T01:30:16.926Z,11.70
2018-11-03T01:32:46.481Z,11.40
2018-11-03T01:35:15.962Z,10.60
2018-11-03T01:37:45.591Z,12.30
2018-11-03T01:40:15.408Z,13.20
2018-11-03T01:42:44.805Z,11.70
2018-11-03T01:45:14.555Z,11.27
2018-11-03T01:47:44.324Z,11.63
2018-11-03T01:50:14.136Z,11.53
2018-11-03T01:52:43.743Z,11.80
2018-11-03T01:55:13.148Z,13.10
2018-11-03T01:57:42.648Z,11.40
2018-11-03T02:00:12.358Z,11.17
2018-11-03T02:02:41.865Z,11.07
2018-11-03T02:05:11.674Z,12.37
2018-11-03T02:07:41.349Z,12.17
2018-11-03T02:10:11.914Z,12.47
2018-11-03T02:12:41.866Z,12.60
2018-11-03T02:15:11.807Z,12.40
2018-11-03T02:17:41.243Z,12.43
2018-11-03T02:20:11.588Z,13.90
2018-11-03T02:22:41.283Z,11.50
2018-11-03T02:25:11.034Z,12.20
2018-11-03T02:27:40.643Z,11.93
2018-11-03T02:30:11.265Z,11.83
2018-11-03T02:32:40.929Z,12.83
2018-11-03T02:35:11.650Z,13.00
2018-11-03T02:37:41.931Z,12.07
2018-11-03T02:40:12.906Z,11.57
2018-11-03T02:42:43.149Z,12.10
2018-11-03T02:45:12.806Z,11.70
2018-11-03T02:47:42.655Z,12.83
2018-11-03T02:50:13.627Z,14.00
2018-11-03T02:52:43.600Z,13.50
2018-11-03T02:55:13.123Z,13.43
2018-11-03T02:57:42.459Z,13.23
2018-11-03T03:00:12.378Z,14.90
2018-11-03T03:02:41.816Z,12.20
2018-11-03T03:05:11.785Z,13.13
2018-11-03T03:07:41.667Z,15.43
2018-11-03T03:10:12.608Z,14.13
2018-11-03T03:12:42.110Z,14.33
2018-11-03T03:15:12.637Z,16.30
2018-11-03T03:17:42.440Z,14.20
2018-11-03T03:20:12.801Z,14.27
2018-11-03T03:22:42.583Z,15.17
2018-11-03T03:25:12.702Z,15.33
2018-11-03T03:27:42.111Z,14.87
2018-11-03T03:30:12.336Z,16.53
2018-11-03T03:32:42.142Z,17.57
2018-11-03T03:35:11.645Z,16.73
2018-11-03T03:37:41.046Z,16.93
2018-11-03T03:40:11.065Z,16.67
2018-11-03T03:42:40.558Z,20.93
2018-11-03T03:45:10.878Z,15.90
2018-11-03T03:47:40.288Z,15.83
2018-11-03T03:50:10.921Z,17.83
2018-11-03T03:52:40.631Z,19.50
2018-11-03T03:55:10.763Z,17.57
2018-11-03T03:57:40.355Z,16.90
2018-11-03T04:00:11.568Z,16.40
2018-11-03T04:02:41.771Z,17.83
2018-11-03T04:05:11.527Z,17.73
2018-11-03T04:07:41.007Z,19.07
2018-11-03T04:10:11.158Z,14.33
2018-11-03T04:12:40.869Z,14.33
2018-11-03T04:15:10.469Z,13.97
2018-11-03T04:17:40.177Z,14.23
2018-11-03T04:20:09.628Z,14.30
2018-11-03T04:22:39.284Z,16.40
2018-11-03T04:25:08.783Z,16.00
2018-11-03T04:27:38.189Z,15.90
2018-11-03T04:30:10.439Z,16.20
2018-11-03T04:32:40.169Z,15.83
2018-11-03T04:35:11.010Z,17.57
2018-11-03T04:37:40.819Z,16.67
2018-11-03T04:40:11.916Z,16.40
2018-11-03T04:42:41.872Z,17.80
2018-11-03T04:45:12.128Z,17.37
2018-11-03T04:47:41.700Z,16.57
2018-11-03T04:50:11.718Z,15.67
2018-11-03T04:52:41.119Z,15.57
2018-11-03T04:55:10.668Z,15.50
2018-11-03T04:57:40.027Z,15.30
2018-11-03T05:00:10.039Z,15.77
2018-11-03T05:02:39.441Z,16.10
2018-11-03T05:05:09.015Z,15.67
2018-11-03T05:07:38.452Z,16.73
2018-11-03T05:10:09.069Z,14.97
2018-11-03T05:12:38.787Z,18.27
2018-11-03T05:15:08.291Z,14.97
2018-11-03T05:17:37.701Z,13.53
2018-11-03T05:20:07.096Z,16.50
2018-11-03T05:22:36.655Z,15.20
2018-11-03T05:25:06.356Z,15.73
2018-11-03T05:27:35.880Z,16.57
2018-11-03T05:30:06.102Z,14.67
2018-11-03T05:32:35.640Z,15.57
2018-11-03T05:35:05.147Z,14.97
2018-11-03T05:37:34.563Z,15.63
2018-11-03T05:40:04.154Z,17.50
2018-11-03T05:42:33.512Z,15.13
2018-11-03T05:45:02.854Z,15.23
2018-11-03T05:47:32.422Z,13.83
2018-11-03T05:50:01.867Z,13.07
2018-11-03T05:52:31.470Z,14.33
2018-11-03T05:55:00.803Z,14.60
2018-11-03T05:57:30.171Z,15.87
2018-11-03T05:59:59.575Z,19.27
2018-11-03T06:02:29.078Z,16.53
2018-11-03T06:04:58.478Z,16.47
2018-11-03T06:07:27.985Z,16.43
2018-11-03T06:09:57.488Z,18.30
2018-11-03T06:12:26.887Z,17.50
2018-11-03T06:14:56.289Z,18.33
2018-11-03T06:17:25.863Z,17.00
2018-11-03T06:19:55.198Z,15.40
2018-11-03T06:22:24.803Z,16.37
2018-11-03T06:24:54.307Z,15.67
2018-11-03T06:27:23.716Z,16.03
2018-11-03T06:29:53.111Z,16.17
2018-11-03T06:32:22.510Z,16.43
2018-11-03T06:34:51.819Z,14.30
2018-11-03T06:37:21.249Z,16.00
2018-11-03T06:39:50.617Z,13.90
2018-11-03T06:42:20.223Z,14.60
2018-11-03T06:44:49.634Z,14.60
2018-11-03T06:47:19.779Z,14.93
2018-11-03T06:49:49.321Z,15.70
2018-11-03T06:52:19.071Z,13.97
2018-11-03T06:54:48.874Z,14.77
2018-11-03T06:57:18.324Z,15.83
2018-11-03T06:59:47.768Z,16.37
2018-11-03T07:02:17.135Z,16.37
2018-11-03T07:04:46.498Z,15.77
2018-11-03T07:07:15.980Z,15.37
2018-11-03T07:09:45.540Z,15.20
2018-11-03T07:12:15.166Z,17.57
2018-11-03T07:14:44.398Z,16.27
2018-11-03T07:17:13.788Z,15.60
2018-11-03T07:19:43.193Z,16.47
2018-11-03T07:22:12.710Z,15.00
2018-11-03T07:24:42.099Z,17.37
2018-11-03T07:27:11.603Z,15.53
2018-11-03T07:29:42.180Z,16.37
2018-11-03T07:32:11.644Z,16.50
2018-11-03T07:34:41.243Z,16.30
2018-11-03T07:37:10.642Z,16.83
2018-11-03T07:39:40.080Z,16.07
2018-11-03T07:42:09.447Z,16.07
2018-11-03T07:44:38.846Z,15.77
2018-11-03T07:47:08.352Z,15.03
2018-11-03T07:49:37.860Z,15.90
2018-11-03T07:52:07.266Z,14.90
2018-11-03T07:54:36.802Z,14.23
2018-11-03T07:57:06.422Z,16.40
2018-11-03T07:59:36.392Z,16.67
2018-11-03T08:02:06.548Z,16.53
2018-11-03T08:04:35.960Z,17.70
2018-11-03T08:07:05.951Z,15.40
2018-11-03T08:09:35.426Z,15.50
2018-11-03T08:12:04.827Z,15.27
2018-11-03T08:14:35.377Z,14.70
2018-11-03T08:17:04.865Z,15.17
2018-11-03T08:19:34.321Z,14.93
2018-11-03T08:22:03.767Z,15.50
2018-11-03T08:24:33.180Z,16.10
2018-11-03T08:27:02.568Z,19.13
2018-11-03T08:29:31.971Z,16.00
2018-11-03T08:32:01.373Z,16.93
2018-11-03T08:34:30.775Z,16.90
2018-11-03T08:37:00.381Z,17.03
2018-11-03T08:39:29.830Z,18.73
2018-11-03T08:41:59.288Z,18.40
2018-11-03T08:44:28.687Z,21.20
2018-11-03T08:46:58.192Z,20.27
2018-11-03T08:49:27.592Z,17.93
2018-11-03T08:51:57.098Z,18.93
2018-11-03T08:54:26.705Z,21.13
2018-11-03T08:56:56.517Z,20.23
2018-11-03T08:59:26.055Z,20.07
2018-11-03T09:01:56.036Z,21.83
2018-11-03T09:04:25.847Z,20.43
2018-11-03T09:06:55.363Z,19.10
2018-11-03T09:09:25.164Z,20.60
2018-11-03T09:11:54.667Z,22.27
2018-11-03T09:14:24.223Z,19.10
2018-11-03T09:16:53.675Z,18.87
2018-11-03T09:19:23.182Z,18.03
2018-11-03T09:21:52.679Z,19.03
2018-11-03T09:24:22.013Z,17.40
2018-11-03T09:26:51.694Z,18.23
2018-11-03T09:29:21.400Z,18.03
2018-11-03T09:31:50.817Z,18.97
2018-11-03T09:34:20.309Z,15.87
2018-11-03T09:36:49.816Z,17.23
2018-11-03T09:39:19.424Z,13.93
2018-11-03T09:41:48.920Z,14.03
2018-11-03T09:44:18.337Z,16.40
2018-11-03T09:46:47.829Z,17.07
2018-11-03T09:49:17.232Z,13.37
2018-11-03T09:51:46.815Z,12.80
2018-11-03T09:54:16.239Z,14.53
2018-11-03T09:56:45.810Z,15.80
2018-11-03T09:59:15.147Z,14.83
2018-11-03T10:01:44.547Z,15.90
2018-11-03T10:04:14.004Z,13.80
2018-11-03T10:06:43.806Z,14.70
2018-11-03T10:09:13.166Z,14.83
2018-11-03T10:11:42.665Z,16.83
2018-11-03T10:14:12.169Z,17.17
2018-11-03T10:16:41.589Z,16.80
2018-11-03T10:19:10.973Z,14.60
2018-11-03T10:21:40.372Z,18.40
2018-11-03T10:24:09.701Z,14.93
2018-11-03T10:26:39.286Z,17.13
2018-11-03T10:29:08.659Z,19.30
2018-11-03T10:31:38.188Z,22.03
2018-11-03T10:34:07.691Z,20.43
2018-11-03T10:36:37.196Z,16.57
2018-11-03T10:39:09.343Z,19.80
2018-11-03T10:41:38.885Z,16.97
2018-11-03T10:44:08.593Z,19.47
2018-11-03T10:46:38.130Z,17.47
2018-11-03T10:49:07.787Z,21.90
2018-11-03T10:51:37.187Z,22.77
2018-11-03T10:54:07.104Z,20.43
2018-11-03T10:56:36.608Z,24.07
2018-11-03T10:59:06.014Z,21.47
2018-11-03T11:01:41.453Z,20.07
2018-11-03T11:04:16.282Z,21.87
2018-11-03T11:06:51.215Z,23.03
2018-11-03T11:09:26.450Z,25.10
2018-11-03T11:12:00.975Z,23.47
2018-11-03T11:14:30.583Z,21.70
2018-11-03T11:17:00.133Z,25.17
2018-11-03T11:19:29.382Z,22.23
2018-11-03T11:21:59.094Z,23.50
2018-11-03T11:24:28.528Z,23.87
2018-11-03T11:26:58.205Z,22.27
2018-11-03T11:29:27.605Z,22.10
2018-11-03T11:31:57.215Z,22.70
2018-11-03T11:34:26.816Z,21.87
2018-11-03T11:36:56.289Z,20.67
2018-11-03T11:39:25.826Z,18.80
2018-11-03T11:41:55.233Z,20.80
2018-11-03T11:44:24.661Z,19.10
2018-11-03T11:46:54.030Z,18.83
2018-11-03T11:49:23.535Z,22.27
2018-11-03T11:51:53.039Z,20.27
2018-11-03T11:54:22.440Z,21.67
2018-11-03T11:56:51.946Z,18.50
2018-11-03T11:59:21.451Z,21.00
2018-11-03T12:01:51.002Z,24.60
2018-11-03T12:04:20.358Z,22.73
2018-11-03T12:06:49.722Z,17.87
2018-11-03T12:09:19.159Z,18.10
2018-11-03T12:11:48.664Z,20.77
2018-11-03T12:14:18.170Z,22.90
2018-11-03T12:16:47.568Z,22.27
2018-11-03T12:19:17.329Z,21.30
2018-11-03T12:21:46.783Z,18.17
2018-11-03T12:24:16.292Z,18.67
2018-11-03T12:26:45.701Z,23.27
2018-11-03T12:29:15.298Z,22.67
2018-11-03T12:31:44.699Z,22.13
2018-11-03T12:34:14.203Z,23.10
2018-11-03T12:36:43.955Z,19.90
2018-11-03T12:39:14.716Z,22.67
2018-11-03T12:41:44.147Z,21.27
2018-11-03T12:44:13.659Z,22.13
2018-11-03T12:46:43.158Z,17.83
2018-11-03T12:49:12.664Z,20.00
2018-11-03T12:51:42.168Z,22.53
2018-11-03T12:54:11.571Z,21.10
2018-11-03T12:56:41.051Z,22.70
2018-11-03T12:59:10.664Z,18.07
2018-11-03T13:01:40.078Z,20.77
2018-11-03T13:04:09.545Z,18.30
2018-11-03T13:06:38.881Z,20.43
2018-11-03T13:09:09.695Z,16.83
2018-11-03T13:11:39.385Z,17.83
2018-11-03T13:14:09.237Z,18.73
2018-11-03T13:16:41.711Z,20.17
2018-11-03T13:19:12.547Z,19.10
2018-11-03T13:21:41.949Z,21.23
2018-11-03T13:24:11.551Z,21.77
2018-11-03T13:26:41.166Z,20.27
2018-11-03T13:29:10.666Z,20.27
2018-11-03T13:31:40.072Z,18.60
2018-11-03T13:34:09.673Z,20.47
2018-11-03T13:36:39.177Z,22.83
2018-11-03T13:39:09.659Z,20.57
2018-11-03T13:41:39.101Z,25.50
2018-11-03T13:44:08.598Z,23.67
2018-11-03T13:46:38.010Z,27.80
2018-11-03T13:49:07.667Z,26.80
2018-11-03T13:51:37.074Z,23.23
2018-11-03T13:54:06.529Z,22.43
2018-11-03T13:56:35.929Z,22.23
2018-11-03T13:59:05.354Z,21.73
2018-11-03T14:01:34.835Z,23.23
2018-11-03T14:04:04.241Z,22.43
2018-11-03T14:06:34.202Z,20.87
2018-11-03T14:09:03.961Z,22.17
2018-11-03T14:11:33.469Z,20.53
2018-11-03T14:14:02.969Z,21.70
2018-11-03T14:16:32.371Z,23.13
2018-11-03T14:19:01.998Z,20.47
2018-11-03T14:21:31.591Z,20.63
2018-11-03T14:24:01.335Z,21.23
2018-11-03T14:26:30.797Z,19.43
2018-11-03T14:29:00.523Z,21.40
2018-11-03T14:31:30.016Z,19.67
2018-11-03T14:33:59.718Z,21.77
2018-11-03T14:36:29.149Z,18.70
2018-11-03T14:38:58.528Z,20.30
2018-11-03T14:41:28.132Z,18.70
2018-11-03T14:43:57.642Z,19.53
2018-11-03T14:46:27.142Z,19.60
2018-11-03T14:48:56.642Z,21.50
2018-11-03T14:51:26.146Z,30.07
2018-11-03T14:53:55.650Z,32.00
2018-11-03T14:56:25.057Z,21.23
2018-11-03T14:58:54.454Z,17.30
2018-11-03T15:01:23.957Z,18.50
2018-11-03T15:03:53.369Z,20.97
2018-11-03T15:06:22.865Z,40.43
2018-11-03T15:08:52.368Z,20.00
2018-11-03T15:11:21.974Z,17.67
2018-11-03T15:13:51.769Z,41.83
2018-11-03T15:16:20.983Z,152.30
2018-11-03T15:18:50.501Z,120.33
2018-11-03T15:21:20.011Z,86.20
2018-11-03T15:23:49.589Z,42.77
2018-11-03T15:26:19.205Z,27.63
2018-11-03T15:28:48.809Z,17.83
2018-11-03T15:31:18.314Z,16.37
2018-11-03T15:33:48.033Z,20.27
2018-11-03T15:36:17.487Z,19.97
2018-11-03T15:38:47.135Z,18.70
2018-11-03T15:41:16.838Z,17.73
2018-11-03T15:43:47.375Z,17.93
2018-11-03T15:46:16.983Z,18.73
2018-11-03T15:48:46.403Z,20.33
2018-11-03T15:51:15.885Z,19.43
2018-11-03T15:53:45.225Z,18.57
2018-11-03T15:56:14.693Z,18.00
2018-11-03T15:58:44.294Z,19.83
2018-11-03T16:01:13.864Z,18.73
2018-11-03T16:03:43.311Z,23.90
2018-11-03T16:06:12.910Z,30.40
2018-11-03T16:08:42.312Z,21.23
2018-11-03T16:11:11.597Z,21.87
2018-11-03T16:13:41.219Z,21.47
2018-11-03T16:16:10.560Z,20.43
2018-11-03T16:18:39.992Z,18.10
2018-11-03T16:21:09.802Z,19.03
2018-11-03T16:23:39.236Z,20.73
2018-11-03T16:26:08.796Z,21.90
2018-11-03T16:28:38.641Z,17.90
2018-11-03T16:31:08.263Z,19.30
2018-11-03T16:33:37.866Z,23.40
2018-11-03T16:36:07.266Z,21.57
2018-11-03T16:38:37.000Z,22.40
2018-11-03T16:41:06.629Z,24.10
2018-11-03T16:43:36.173Z,19.63
2018-11-03T16:46:06.039Z,18.77
2018-11-03T16:48:35.403Z,20.40
2018-11-03T16:51:04.797Z,25.43
2018-11-03T16:53:34.206Z,32.70
2018-11-03T16:56:03.813Z,65.47
2018-11-03T16:58:33.231Z,20.93
2018-11-03T17:01:02.801Z,72.10
2018-11-03T17:03:32.319Z,54.90
2018-11-03T17:06:01.933Z,95.37
2018-11-03T17:08:31.236Z,44.93
2018-11-03T17:11:00.735Z,42.67
2018-11-03T17:13:30.134Z,26.73
2018-11-03T17:15:59.605Z,52.20
2018-11-03T17:18:29.154Z,192.83
2018-11-03T17:20:58.647Z,32.37
2018-11-03T17:23:28.197Z,23.23
2018-11-03T17:25:57.778Z,24.47
2018-11-03T17:28:27.263Z,25.40
2018-11-03T17:30:56.973Z,27.57
2018-11-03T17:33:26.579Z,25.10
2018-11-03T17:35:56.303Z,25.00
2018-11-03T17:38:25.691Z,23.53
2018-11-03T17:40:55.093Z,25.13
2018-11-03T17:43:24.596Z,23.37
2018-11-03T17:45:54.001Z,21.97
2018-11-03T17:48:23.403Z,25.17
2018-11-03T17:50:52.903Z,26.40
2018-11-03T17:53:22.512Z,25.27
2018-11-03T17:55:53.017Z,23.17
2018-11-03T17:58:23.451Z,26.20
2018-11-03T18:00:53.390Z,28.03
2018-11-03T18:03:23.009Z,23.67
2018-11-03T18:05:52.693Z,23.87
2018-11-03T18:08:22.281Z,23.53
2018-11-03T18:10:52.373Z,22.97
2018-11-03T18:13:22.318Z,26.07
2018-11-03T18:15:51.738Z,23.07
2018-11-03T18:18:21.238Z,24.97
2018-11-03T18:20:50.961Z,26.60
2018-11-03T18:23:20.451Z,27.53
2018-11-03T18:25:49.954Z,27.23
2018-11-03T18:28:19.358Z,25.57
2018-11-03T18:30:48.777Z,26.80
2018-11-03T18:33:19.356Z,24.70
2018-11-03T18:35:48.728Z,29.20
2018-11-03T18:38:18.271Z,30.47
2018-11-03T18:40:47.653Z,31.40
2018-11-03T18:43:17.303Z,28.47
2018-11-03T18:45:46.912Z,33.63
2018-11-03T18:48:16.521Z,31.53
2018-11-03T18:50:47.355Z,27.63
2018-11-03T18:53:16.655Z,30.03
2018-11-03T18:55:46.127Z,30.87
2018-11-03T18:58:15.601Z,31.63
2018-11-03T19:00:45.164Z,29.33
2018-11-03T19:03:14.669Z,30.53
2018-11-03T19:05:44.240Z,33.77
2018-11-03T19:08:13.682Z,30.47
2018-11-03T19:10:43.139Z,34.60
2018-11-03T19:13:12.780Z,31.70
2018-11-03T19:15:42.867Z,33.07
2018-11-03T19:18:12.797Z,35.90
2018-11-03T19:20:43.051Z,30.57
2018-11-03T19:23:13.313Z,35.93
2018-11-03T19:25:43.175Z,36.70
2018-11-03T19:28:12.967Z,32.90
2018-11-03T19:30:43.043Z,39.87
2018-11-03T19:33:13.080Z,37.20
2018-11-03T19:35:42.825Z,36.60
2018-11-03T19:38:12.604Z,36.50
2018-11-03T19:40:42.693Z,36.77
2018-11-03T19:43:12.636Z,36.03
2018-11-03T19:45:43.430Z,35.67
2018-11-03T19:48:13.368Z,36.30
2018-11-03T19:50:43.443Z,31.53
2018-11-03T19:53:13.443Z,39.20
2018-11-03T19:55:43.344Z,35.07
2018-11-03T19:58:13.149Z,35.23
2018-11-03T20:00:42.992Z,33.07
2018-11-03T20:03:13.085Z,33.33
2018-11-03T20:05:42.958Z,33.03
2018-11-03T20:08:12.938Z,30.67
2018-11-03T20:10:42.853Z,32.00
2018-11-03T20:13:13.083Z,37.53
2018-11-03T20:15:43.144Z,30.67
2018-11-03T20:18:13.871Z,30.30
2018-11-03T20:20:45.000Z,31.90
2018-11-03T20:23:14.910Z,31.17
2018-11-03T20:25:44.806Z,34.00
2018-11-03T20:28:14.628Z,30.73
2018-11-03T20:30:44.628Z,35.50
2018-11-03T20:33:14.413Z,33.07
2018-11-03T20:35:44.331Z,30.90
2018-11-03T20:38:14.318Z,34.73
2018-11-03T20:40:44.667Z,38.63
2018-11-03T20:43:14.697Z,35.03
2018-11-03T20:45:44.603Z,36.53
2018-11-03T20:48:14.850Z,30.60
2018-11-03T20:50:44.631Z,31.83
2018-11-03T20:53:14.392Z,33.70
2018-11-03T20:55:44.268Z,36.93
2018-11-03T20:58:14.073Z,32.70
2018-11-03T21:00:44.182Z,31.17
2018-11-03T21:03:14.126Z,32.50
2018-11-03T21:08:35.383Z,33.97
2018-11-03T21:11:06.756Z,30.40
2018-11-03T21:13:36.514Z,32.17
2018-11-03T21:16:06.203Z,29.27
2018-11-03T21:18:35.742Z,30.07
2018-11-03T21:21:05.330Z,31.43
2018-11-03T21:23:34.627Z,31.27
2018-11-03T21:26:04.172Z,31.50
2018-11-03T21:28:33.482Z,30.00
2018-11-03T21:31:02.818Z,30.83
2018-11-03T21:33:32.043Z,29.93
2018-11-03T21:36:01.224Z,29.03
2018-11-03T21:38:30.341Z,27.97
2018-11-03T21:40:59.679Z,29.63
2018-11-03T21:43:28.783Z,30.60
2018-11-03T21:45:57.912Z,30.57
2018-11-03T21:48:27.699Z,27.43
2018-11-03T21:50:57.984Z,28.90
2018-11-03T21:53:27.750Z,29.90
2018-11-03T21:55:58.459Z,31.10
2018-11-03T21:58:27.883Z,26.60
2018-11-03T22:00:58.826Z,25.97
2018-11-03T22:06:19.889Z,27.17
2018-11-03T22:08:49.230Z,25.77
2018-11-03T22:11:18.856Z,26.90
2018-11-03T22:13:48.170Z,25.93
2018-11-03T22:16:17.479Z,29.30
2018-11-03T22:18:46.751Z,27.13
2018-11-03T22:21:16.154Z,27.40
2018-11-03T22:23:45.384Z,28.13
2018-11-03T22:26:14.754Z,28.83
2018-11-03T22:28:44.155Z,37.47
2018-11-03T22:31:13.462Z,30.50
2018-11-03T22:33:42.962Z,27.57
2018-11-03T22:36:12.566Z,27.33
2018-11-03T22:38:41.863Z,28.40
2018-11-03T22:41:11.146Z,28.63
2018-11-03T22:43:40.666Z,28.37
2018-11-03T22:46:10.274Z,28.97
2018-11-03T22:48:39.880Z,29.87
2018-11-03T22:51:14.018Z,30.43
2018-11-03T22:53:44.599Z,30.00
2018-11-03T22:56:14.229Z,31.30
2018-11-03T22:58:43.836Z,31.57
2018-11-03T23:01:13.341Z,29.63
2018-11-03T23:03:42.947Z,34.90
2018-11-03T23:06:13.279Z,33.00
2018-11-03T23:08:42.878Z,30.40
2018-11-03T23:11:12.838Z,31.53
2018-11-03T23:13:42.406Z,32.73
2018-11-03T23:16:12.003Z,35.83
2018-11-03T23:18:41.514Z,34.97
2018-11-03T23:21:11.115Z,33.77
2018-11-03T23:23:40.723Z,34.87
2018-11-03T23:26:10.230Z,34.27
2018-11-03T23:28:39.730Z,33.90
2018-11-03T23:31:09.131Z,37.43
2018-11-03T23:33:38.615Z,37.23
2018-11-03T23:36:08.344Z,36.10
2018-11-03T23:38:37.952Z,38.83
2018-11-03T23:41:07.356Z,38.27
2018-11-03T23:43:36.857Z,41.57
2018-11-03T23:46:06.567Z,41.07
2018-11-03T23:48:36.171Z,36.80
2018-11-03T23:51:05.663Z,37.17
2018-11-03T23:53:35.078Z,39.43
2018-11-03T23:56:04.478Z,37.87
2018-11-03T23:58:34.393Z,41.30
